sensor_id;sensor_type;location;lat;lon;timestamp;P1;durP1;ratioP1;P2;durP2;ratioP2
25049;SDS011;13046;49.814;9.918;2022-12-20T00:00:42;99.15;;;52.15;;
25049;SDS011;13046;49.814;9.918;2022-12-20T00:03:08;84.68;;;44.95;;
25049;SDS011;13046;49.814;9.918;2022-12-20T00:05:37;89.80;;;47.45;;
25049;SDS011;13046;49.814;9.918;2022-12-20T00:08:04;144.48;;;58.08;;
25049;SDS011;13046;49.814;9.918;2022-12-20T00:10:30;105.60;;;53.20;;
25049;SDS011;13046;49.814;9.918;2022-12-20T00:12:56;93.90;;;50.60;;
25049;SDS011;13046;49.814;9.918;2022-12-20T00:15:22;88.22;;;44.78;;
25049;SDS011;13046;49.814;9.918;2022-12-20T00:17:48;89.72;;;46.13;;
25049;SDS011;13046;49.814;9.918;2022-12-20T00:20:15;92.00;;;47.15;;
25049;SDS011;13046;49.814;9.918;2022-12-20T00:22:41;85.60;;;44.78;;
25049;SDS011;13046;49.814;9.918;2022-12-20T00:25:07;83.63;;;43.65;;
25049;SDS011;13046;49.814;9.918;2022-12-20T00:27:33;76.63;;;44.78;;
25049;SDS011;13046;49.814;9.918;2022-12-20T00:29:59;86.95;;;47.05;;
25049;SDS011;13046;49.814;9.918;2022-12-20T00:32:26;81.60;;;44.45;;
25049;SDS011;13046;49.814;9.918;2022-12-20T00:34:52;85.93;;;47.25;;
25049;SDS011;13046;49.814;9.918;2022-12-20T00:37:18;94.28;;;47.92;;
25049;SDS011;13046;49.814;9.918;2022-12-20T00:39:44;90.82;;;48.85;;
25049;SDS011;13046;49.814;9.918;2022-12-20T00:42:10;86.28;;;49.30;;
25049;SDS011;13046;49.814;9.918;2022-12-20T00:44:36;91.80;;;48.13;;
25049;SDS011;13046;49.814;9.918;2022-12-20T00:47:02;91.93;;;48.17;;
25049;SDS011;13046;49.814;9.918;2022-12-20T00:49:28;89.30;;;47.28;;
25049;SDS011;13046;49.814;9.918;2022-12-20T00:51:54;84.53;;;44.80;;
25049;SDS011;13046;49.814;9.918;2022-12-20T00:54:20;84.45;;;45.63;;
25049;SDS011;13046;49.814;9.918;2022-12-20T00:56:46;87.78;;;48.15;;
25049;SDS011;13046;49.814;9.918;2022-12-20T00:59:13;87.18;;;45.88;;
25049;SDS011;13046;49.814;9.918;2022-12-20T01:01:39;89.72;;;47.72;;
25049;SDS011;13046;49.814;9.918;2022-12-20T01:04:05;84.22;;;46.40;;
25049;SDS011;13046;49.814;9.918;2022-12-20T01:06:32;83.57;;;47.35;;
25049;SDS011;13046;49.814;9.918;2022-12-20T01:08:59;85.40;;;46.97;;
25049;SDS011;13046;49.814;9.918;2022-12-20T01:11:28;85.63;;;44.58;;
25049;SDS011;13046;49.814;9.918;2022-12-20T01:13:57;91.80;;;49.13;;
25049;SDS011;13046;49.814;9.918;2022-12-20T01:16:25;98.78;;;50.25;;
25049;SDS011;13046;49.814;9.918;2022-12-20T01:18:52;93.25;;;48.60;;
25049;SDS011;13046;49.814;9.918;2022-12-20T01:21:19;97.05;;;50.97;;
25049;SDS011;13046;49.814;9.918;2022-12-20T01:23:45;97.32;;;50.33;;
25049;SDS011;13046;49.814;9.918;2022-12-20T01:26:12;99.45;;;49.83;;
25049;SDS011;13046;49.814;9.918;2022-12-20T01:28:39;96.55;;;49.33;;
25049;SDS011;13046;49.814;9.918;2022-12-20T01:31:06;86.97;;;49.03;;
25049;SDS011;13046;49.814;9.918;2022-12-20T01:33:33;98.15;;;51.08;;
25049;SDS011;13046;49.814;9.918;2022-12-20T01:36:00;89.03;;;48.90;;
25049;SDS011;13046;49.814;9.918;2022-12-20T01:38:27;93.68;;;48.15;;
25049;SDS011;13046;49.814;9.918;2022-12-20T01:40:54;95.65;;;52.20;;
25049;SDS011;13046;49.814;9.918;2022-12-20T01:43:21;89.53;;;50.67;;
25049;SDS011;13046;49.814;9.918;2022-12-20T01:45:48;90.35;;;47.67;;
25049;SDS011;13046;49.814;9.918;2022-12-20T01:48:15;93.63;;;51.47;;
25049;SDS011;13046;49.814;9.918;2022-12-20T01:50:43;95.72;;;48.35;;
25049;SDS011;13046;49.814;9.918;2022-12-20T01:53:09;92.47;;;48.85;;
25049;SDS011;13046;49.814;9.918;2022-12-20T01:55:36;95.47;;;50.05;;
25049;SDS011;13046;49.814;9.918;2022-12-20T01:58:03;101.22;;;51.58;;
25049;SDS011;13046;49.814;9.918;2022-12-20T02:00:30;99.18;;;51.30;;
25049;SDS011;13046;49.814;9.918;2022-12-20T02:03:00;99.63;;;53.20;;
25049;SDS011;13046;49.814;9.918;2022-12-20T02:05:32;96.30;;;51.80;;
25049;SDS011;13046;49.814;9.918;2022-12-20T02:07:59;95.32;;;50.95;;
25049;SDS011;13046;49.814;9.918;2022-12-20T02:10:26;92.47;;;52.05;;
25049;SDS011;13046;49.814;9.918;2022-12-20T02:12:57;93.53;;;51.60;;
25049;SDS011;13046;49.814;9.918;2022-12-20T02:15:31;97.40;;;54.25;;
25049;SDS011;13046;49.814;9.918;2022-12-20T02:23:12;90.78;;;51.83;;
25049;SDS011;13046;49.814;9.918;2022-12-20T02:25:42;93.20;;;51.83;;
25049;SDS011;13046;49.814;9.918;2022-12-20T02:30:38;97.18;;;51.63;;
25049;SDS011;13046;49.814;9.918;2022-12-20T02:33:06;94.20;;;48.05;;
25049;SDS011;13046;49.814;9.918;2022-12-20T02:35:34;93.22;;;52.47;;
25049;SDS011;13046;49.814;9.918;2022-12-20T02:38:25;91.10;;;48.75;;
25049;SDS011;13046;49.814;9.918;2022-12-20T02:40:48;93.32;;;50.58;;
25049;SDS011;13046;49.814;9.918;2022-12-20T02:43:16;95.32;;;50.30;;
25049;SDS011;13046;49.814;9.918;2022-12-20T02:46:02;96.97;;;51.13;;
25049;SDS011;13046;49.814;9.918;2022-12-20T02:48:28;97.82;;;54.05;;
25049;SDS011;13046;49.814;9.918;2022-12-20T02:50:56;95.70;;;51.55;;
25049;SDS011;13046;49.814;9.918;2022-12-20T02:53:22;92.97;;;49.88;;
25049;SDS011;13046;49.814;9.918;2022-12-20T02:55:53;99.80;;;52.17;;
25049;SDS011;13046;49.814;9.918;2022-12-20T02:58:24;99.50;;;51.97;;
25049;SDS011;13046;49.814;9.918;2022-12-20T03:00:51;97.40;;;50.78;;
25049;SDS011;13046;49.814;9.918;2022-12-20T03:03:17;90.60;;;49.72;;
25049;SDS011;13046;49.814;9.918;2022-12-20T03:05:46;92.45;;;51.63;;
25049;SDS011;13046;49.814;9.918;2022-12-20T03:08:16;92.13;;;52.58;;
25049;SDS011;13046;49.814;9.918;2022-12-20T03:10:43;97.95;;;50.85;;
25049;SDS011;13046;49.814;9.918;2022-12-20T03:13:09;90.40;;;50.72;;
25049;SDS011;13046;49.814;9.918;2022-12-20T03:15:42;90.38;;;47.67;;
25049;SDS011;13046;49.814;9.918;2022-12-20T03:18:08;89.40;;;51.45;;
25049;SDS011;13046;49.814;9.918;2022-12-20T03:20:34;97.93;;;53.95;;
25049;SDS011;13046;49.814;9.918;2022-12-20T03:23:00;92.75;;;50.65;;
25049;SDS011;13046;49.814;9.918;2022-12-20T03:25:26;108.70;;;55.00;;
25049;SDS011;13046;49.814;9.918;2022-12-20T03:27:53;97.88;;;52.08;;
25049;SDS011;13046;49.814;9.918;2022-12-20T03:30:21;97.40;;;52.85;;
25049;SDS011;13046;49.814;9.918;2022-12-20T03:32:48;100.30;;;54.00;;
25049;SDS011;13046;49.814;9.918;2022-12-20T03:35:14;104.70;;;53.90;;
25049;SDS011;13046;49.814;9.918;2022-12-20T03:37:40;93.43;;;52.25;;
25049;SDS011;13046;49.814;9.918;2022-12-20T03:40:07;96.53;;;52.53;;
25049;SDS011;13046;49.814;9.918;2022-12-20T03:42:34;99.38;;;53.53;;
25049;SDS011;13046;49.814;9.918;2022-12-20T03:45:00;103.32;;;56.28;;
25049;SDS011;13046;49.814;9.918;2022-12-20T03:47:28;103.85;;;57.72;;
25049;SDS011;13046;49.814;9.918;2022-12-20T03:49:55;100.22;;;54.55;;
25049;SDS011;13046;49.814;9.918;2022-12-20T03:52:21;91.03;;;53.85;;
25049;SDS011;13046;49.814;9.918;2022-12-20T03:54:47;90.22;;;51.03;;
25049;SDS011;13046;49.814;9.918;2022-12-20T03:57:29;99.15;;;53.15;;
25049;SDS011;13046;49.814;9.918;2022-12-20T03:59:56;97.55;;;52.72;;
25049;SDS011;13046;49.814;9.918;2022-12-20T04:02:22;96.40;;;51.30;;
25049;SDS011;13046;49.814;9.918;2022-12-20T04:04:48;103.50;;;54.03;;
25049;SDS011;13046;49.814;9.918;2022-12-20T04:07:14;98.85;;;54.60;;
25049;SDS011;13046;49.814;9.918;2022-12-20T04:09:44;104.10;;;56.65;;
25049;SDS011;13046;49.814;9.918;2022-12-20T04:12:12;106.68;;;56.70;;
25049;SDS011;13046;49.814;9.918;2022-12-20T04:14:38;96.05;;;56.50;;
25049;SDS011;13046;49.814;9.918;2022-12-20T04:17:05;99.35;;;57.38;;
25049;SDS011;13046;49.814;9.918;2022-12-20T04:19:32;98.07;;;54.38;;
25049;SDS011;13046;49.814;9.918;2022-12-20T04:21:58;101.75;;;55.50;;
25049;SDS011;13046;49.814;9.918;2022-12-20T04:24:32;98.72;;;54.45;;
25049;SDS011;13046;49.814;9.918;2022-12-20T04:48:09;102.22;;;53.50;;
25049;SDS011;13046;49.814;9.918;2022-12-20T04:50:37;107.65;;;57.33;;
25049;SDS011;13046;49.814;9.918;2022-12-20T04:53:03;102.85;;;54.35;;
25049;SDS011;13046;49.814;9.918;2022-12-20T04:55:49;112.07;;;58.38;;
25049;SDS011;13046;49.814;9.918;2022-12-20T04:58:16;104.28;;;56.72;;
25049;SDS011;13046;49.814;9.918;2022-12-20T05:00:42;104.32;;;55.47;;
25049;SDS011;13046;49.814;9.918;2022-12-20T05:03:21;104.82;;;55.13;;
25049;SDS011;13046;49.814;9.918;2022-12-20T05:05:47;104.00;;;55.15;;
25049;SDS011;13046;49.814;9.918;2022-12-20T05:08:14;102.85;;;52.83;;
25049;SDS011;13046;49.814;9.918;2022-12-20T05:10:40;97.53;;;57.28;;
25049;SDS011;13046;49.814;9.918;2022-12-20T05:20:17;103.78;;;55.15;;
25049;SDS011;13046;49.814;9.918;2022-12-20T05:22:45;105.63;;;58.35;;
25049;SDS011;13046;49.814;9.918;2022-12-20T05:25:32;100.47;;;55.78;;
25049;SDS011;13046;49.814;9.918;2022-12-20T05:28:34;97.65;;;56.35;;
25049;SDS011;13046;49.814;9.918;2022-12-20T05:31:01;100.70;;;53.83;;
25049;SDS011;13046;49.814;9.918;2022-12-20T05:33:31;101.25;;;55.22;;
25049;SDS011;13046;49.814;9.918;2022-12-20T05:35:57;102.93;;;55.95;;
25049;SDS011;13046;49.814;9.918;2022-12-20T05:38:23;100.45;;;56.10;;
25049;SDS011;13046;49.814;9.918;2022-12-20T05:40:50;103.70;;;56.10;;
25049;SDS011;13046;49.814;9.918;2022-12-20T05:43:16;102.25;;;55.13;;
25049;SDS011;13046;49.814;9.918;2022-12-20T05:45:45;104.95;;;55.22;;
25049;SDS011;13046;49.814;9.918;2022-12-20T05:48:13;94.90;;;55.08;;
25049;SDS011;13046;49.814;9.918;2022-12-20T05:50:40;101.57;;;55.50;;
25049;SDS011;13046;49.814;9.918;2022-12-20T05:53:26;104.35;;;55.80;;
25049;SDS011;13046;49.814;9.918;2022-12-20T05:55:55;110.00;;;58.42;;
25049;SDS011;13046;49.814;9.918;2022-12-20T05:58:28;108.35;;;55.25;;
25049;SDS011;13046;49.814;9.918;2022-12-20T06:01:03;104.25;;;57.25;;
25049;SDS011;13046;49.814;9.918;2022-12-20T06:03:34;99.40;;;56.50;;
25049;SDS011;13046;49.814;9.918;2022-12-20T06:06:03;107.47;;;56.42;;
25049;SDS011;13046;49.814;9.918;2022-12-20T06:08:31;102.50;;;54.63;;
25049;SDS011;13046;49.814;9.918;2022-12-20T06:10:59;102.85;;;55.20;;
25049;SDS011;13046;49.814;9.918;2022-12-20T06:13:28;92.88;;;53.42;;
25049;SDS011;13046;49.814;9.918;2022-12-20T06:15:54;102.13;;;56.67;;
25049;SDS011;13046;49.814;9.918;2022-12-20T06:18:21;102.18;;;56.55;;
25049;SDS011;13046;49.814;9.918;2022-12-20T06:20:50;103.40;;;56.40;;
25049;SDS011;13046;49.814;9.918;2022-12-20T06:23:20;107.40;;;56.10;;
25049;SDS011;13046;49.814;9.918;2022-12-20T06:25:55;96.00;;;55.67;;
25049;SDS011;13046;49.814;9.918;2022-12-20T06:28:24;113.63;;;56.58;;
25049;SDS011;13046;49.814;9.918;2022-12-20T06:30:53;115.00;;;57.83;;
25049;SDS011;13046;49.814;9.918;2022-12-20T06:33:33;104.40;;;62.40;;
25049;SDS011;13046;49.814;9.918;2022-12-20T06:36:00;108.78;;;59.10;;
25049;SDS011;13046;49.814;9.918;2022-12-20T06:38:26;102.25;;;56.90;;
25049;SDS011;13046;49.814;9.918;2022-12-20T06:40:52;119.25;;;68.22;;
25049;SDS011;13046;49.814;9.918;2022-12-20T06:43:18;118.90;;;67.72;;
25049;SDS011;13046;49.814;9.918;2022-12-20T06:45:45;114.68;;;65.10;;
25049;SDS011;13046;49.814;9.918;2022-12-20T06:48:11;102.20;;;57.13;;
25049;SDS011;13046;49.814;9.918;2022-12-20T06:50:41;107.75;;;60.90;;
25049;SDS011;13046;49.814;9.918;2022-12-20T06:53:07;109.70;;;60.70;;
25049;SDS011;13046;49.814;9.918;2022-12-20T06:55:34;103.35;;;57.38;;
25049;SDS011;13046;49.814;9.918;2022-12-20T06:58:00;118.75;;;64.68;;
25049;SDS011;13046;49.814;9.918;2022-12-20T07:00:26;114.65;;;63.30;;
25049;SDS011;13046;49.814;9.918;2022-12-20T07:02:52;109.30;;;62.08;;
25049;SDS011;13046;49.814;9.918;2022-12-20T07:05:18;118.72;;;59.65;;
25049;SDS011;13046;49.814;9.918;2022-12-20T07:07:44;115.85;;;64.30;;
25049;SDS011;13046;49.814;9.918;2022-12-20T07:10:10;107.53;;;61.45;;
25049;SDS011;13046;49.814;9.918;2022-12-20T07:12:36;105.85;;;59.83;;
25049;SDS011;13046;49.814;9.918;2022-12-20T07:15:02;107.07;;;61.50;;
25049;SDS011;13046;49.814;9.918;2022-12-20T07:17:28;118.75;;;65.82;;
25049;SDS011;13046;49.814;9.918;2022-12-20T07:19:55;105.30;;;60.88;;
25049;SDS011;13046;49.814;9.918;2022-12-20T07:22:21;106.68;;;63.17;;
25049;SDS011;13046;49.814;9.918;2022-12-20T07:24:47;111.32;;;63.38;;
25049;SDS011;13046;49.814;9.918;2022-12-20T07:27:14;113.25;;;61.40;;
25049;SDS011;13046;49.814;9.918;2022-12-20T07:29:40;111.57;;;61.55;;
25049;SDS011;13046;49.814;9.918;2022-12-20T07:32:06;104.68;;;59.00;;
25049;SDS011;13046;49.814;9.918;2022-12-20T07:34:32;111.05;;;63.45;;
25049;SDS011;13046;49.814;9.918;2022-12-20T07:36:59;114.65;;;67.00;;
25049;SDS011;13046;49.814;9.918;2022-12-20T07:39:25;105.28;;;63.60;;
25049;SDS011;13046;49.814;9.918;2022-12-20T07:41:54;111.38;;;62.95;;
25049;SDS011;13046;49.814;9.918;2022-12-20T07:44:21;121.82;;;62.38;;
25049;SDS011;13046;49.814;9.918;2022-12-20T07:46:47;115.15;;;62.55;;
25049;SDS011;13046;49.814;9.918;2022-12-20T07:49:13;122.28;;;66.80;;
25049;SDS011;13046;49.814;9.918;2022-12-20T07:51:43;113.50;;;63.30;;
25049;SDS011;13046;49.814;9.918;2022-12-20T07:54:11;115.35;;;64.05;;
25049;SDS011;13046;49.814;9.918;2022-12-20T07:56:40;116.38;;;64.35;;
25049;SDS011;13046;49.814;9.918;2022-12-20T07:59:06;115.38;;;64.88;;
25049;SDS011;13046;49.814;9.918;2022-12-20T08:01:32;112.97;;;62.92;;
25049;SDS011;13046;49.814;9.918;2022-12-20T08:04:00;112.53;;;62.70;;
25049;SDS011;13046;49.814;9.918;2022-12-20T08:06:27;138.48;;;79.35;;
25049;SDS011;13046;49.814;9.918;2022-12-20T08:08:53;135.93;;;79.45;;
25049;SDS011;13046;49.814;9.918;2022-12-20T08:11:22;133.30;;;73.20;;
25049;SDS011;13046;49.814;9.918;2022-12-20T08:13:49;120.32;;;72.78;;
25049;SDS011;13046;49.814;9.918;2022-12-20T08:16:15;121.47;;;67.47;;
25049;SDS011;13046;49.814;9.918;2022-12-20T08:18:41;118.15;;;70.85;;
25049;SDS011;13046;49.814;9.918;2022-12-20T08:21:07;132.93;;;76.35;;
25049;SDS011;13046;49.814;9.918;2022-12-20T08:23:36;134.45;;;78.20;;
25049;SDS011;13046;49.814;9.918;2022-12-20T08:26:03;135.98;;;80.10;;
25049;SDS011;13046;49.814;9.918;2022-12-20T08:28:29;120.63;;;72.20;;
25049;SDS011;13046;49.814;9.918;2022-12-20T08:31:01;113.65;;;71.40;;
25049;SDS011;13046;49.814;9.918;2022-12-20T08:33:28;125.57;;;70.03;;
25049;SDS011;13046;49.814;9.918;2022-12-20T08:36:01;121.75;;;66.90;;
25049;SDS011;13046;49.814;9.918;2022-12-20T08:38:28;107.97;;;65.00;;
25049;SDS011;13046;49.814;9.918;2022-12-20T08:41:01;113.28;;;66.05;;
25049;SDS011;13046;49.814;9.918;2022-12-20T08:43:27;117.97;;;69.22;;
25049;SDS011;13046;49.814;9.918;2022-12-20T08:45:54;124.28;;;71.97;;
25049;SDS011;13046;49.814;9.918;2022-12-20T08:48:20;119.30;;;70.93;;
25049;SDS011;13046;49.814;9.918;2022-12-20T08:50:47;113.85;;;66.90;;
25049;SDS011;13046;49.814;9.918;2022-12-20T08:53:13;120.90;;;70.60;;
25049;SDS011;13046;49.814;9.918;2022-12-20T08:55:39;118.60;;;68.82;;
25049;SDS011;13046;49.814;9.918;2022-12-20T08:58:05;115.50;;;71.50;;
25049;SDS011;13046;49.814;9.918;2022-12-20T09:00:31;110.47;;;71.45;;
25049;SDS011;13046;49.814;9.918;2022-12-20T09:02:57;122.13;;;75.53;;
25049;SDS011;13046;49.814;9.918;2022-12-20T09:05:23;117.10;;;73.90;;
25049;SDS011;13046;49.814;9.918;2022-12-20T09:07:49;122.20;;;74.95;;
25049;SDS011;13046;49.814;9.918;2022-12-20T09:10:15;123.43;;;75.25;;
25049;SDS011;13046;49.814;9.918;2022-12-20T09:12:41;136.90;;;78.82;;
25049;SDS011;13046;49.814;9.918;2022-12-20T09:15:08;132.27;;;78.05;;
25049;SDS011;13046;49.814;9.918;2022-12-20T09:17:34;124.00;;;75.85;;
25049;SDS011;13046;49.814;9.918;2022-12-20T09:20:00;121.93;;;74.00;;
25049;SDS011;13046;49.814;9.918;2022-12-20T09:22:27;122.03;;;73.60;;
25049;SDS011;13046;49.814;9.918;2022-12-20T09:24:53;114.13;;;72.88;;
25049;SDS011;13046;49.814;9.918;2022-12-20T09:27:20;125.55;;;72.45;;
25049;SDS011;13046;49.814;9.918;2022-12-20T09:29:46;115.47;;;70.20;;
25049;SDS011;13046;49.814;9.918;2022-12-20T09:32:12;110.70;;;69.10;;
25049;SDS011;13046;49.814;9.918;2022-12-20T09:34:38;126.07;;;74.78;;
25049;SDS011;13046;49.814;9.918;2022-12-20T09:37:04;130.75;;;83.13;;
25049;SDS011;13046;49.814;9.918;2022-12-20T09:39:30;138.40;;;91.10;;
25049;SDS011;13046;49.814;9.918;2022-12-20T09:41:56;136.85;;;93.22;;
25049;SDS011;13046;49.814;9.918;2022-12-20T09:44:28;134.05;;;86.50;;
25049;SDS011;13046;49.814;9.918;2022-12-20T09:49:32;116.15;;;76.05;;
25049;SDS011;13046;49.814;9.918;2022-12-20T09:54:51;118.32;;;75.18;;
25049;SDS011;13046;49.814;9.918;2022-12-20T09:59:49;112.97;;;70.03;;
25049;SDS011;13046;49.814;9.918;2022-12-20T10:02:19;112.68;;;69.72;;
25049;SDS011;13046;49.814;9.918;2022-12-20T10:04:45;96.63;;;61.22;;
25049;SDS011;13046;49.814;9.918;2022-12-20T10:07:33;100.28;;;65.80;;
25049;SDS011;13046;49.814;9.918;2022-12-20T10:15:18;90.40;;;57.78;;
25049;SDS011;13046;49.814;9.918;2022-12-20T10:18:00;96.30;;;61.80;;
25049;SDS011;13046;49.814;9.918;2022-12-20T10:20:39;105.07;;;65.13;;
25049;SDS011;13046;49.814;9.918;2022-12-20T10:25:33;95.72;;;59.22;;
25049;SDS011;13046;49.814;9.918;2022-12-20T10:28:00;93.35;;;59.03;;
25049;SDS011;13046;49.814;9.918;2022-12-20T10:30:27;91.07;;;56.85;;
25049;SDS011;13046;49.814;9.918;2022-12-20T10:32:55;87.82;;;57.00;;
25049;SDS011;13046;49.814;9.918;2022-12-20T10:35:28;87.60;;;57.20;;
25049;SDS011;13046;49.814;9.918;2022-12-20T10:40:30;94.20;;;59.97;;
25049;SDS011;13046;49.814;9.918;2022-12-20T10:42:56;95.40;;;61.03;;
25049;SDS011;13046;49.814;9.918;2022-12-20T10:47:49;98.07;;;60.70;;
25049;SDS011;13046;49.814;9.918;2022-12-20T10:50:19;97.40;;;57.63;;
25049;SDS011;13046;49.814;9.918;2022-12-20T10:53:01;96.82;;;62.38;;
25049;SDS011;13046;49.814;9.918;2022-12-20T10:55:31;100.15;;;62.67;;
25049;SDS011;13046;49.814;9.918;2022-12-20T11:00:27;96.57;;;57.55;;
25049;SDS011;13046;49.814;9.918;2022-12-20T11:03:11;92.32;;;56.92;;
25049;SDS011;13046;49.814;9.918;2022-12-20T11:05:37;96.13;;;55.92;;
25049;SDS011;13046;49.814;9.918;2022-12-20T11:08:13;87.22;;;55.33;;
25049;SDS011;13046;49.814;9.918;2022-12-20T11:10:40;91.47;;;55.60;;
25049;SDS011;13046;49.814;9.918;2022-12-20T11:13:09;97.82;;;58.03;;
25049;SDS011;13046;49.814;9.918;2022-12-20T11:15:46;116.40;;;65.22;;
25049;SDS011;13046;49.814;9.918;2022-12-20T11:18:21;100.38;;;58.58;;
25049;SDS011;13046;49.814;9.918;2022-12-20T11:21:13;98.43;;;55.90;;
25049;SDS011;13046;49.814;9.918;2022-12-20T11:36:20;70.22;;;47.42;;
25049;SDS011;13046;49.814;9.918;2022-12-20T11:44:25;71.15;;;47.47;;
25049;SDS011;13046;49.814;9.918;2022-12-20T11:49:44;92.55;;;55.03;;
25049;SDS011;13046;49.814;9.918;2022-12-20T11:54:41;104.47;;;62.58;;
25049;SDS011;13046;49.814;9.918;2022-12-20T11:57:17;98.03;;;64.07;;
25049;SDS011;13046;49.814;9.918;2022-12-20T11:59:46;101.40;;;62.78;;
25049;SDS011;13046;49.814;9.918;2022-12-20T12:02:27;96.50;;;58.70;;
25049;SDS011;13046;49.814;9.918;2022-12-20T12:05:00;100.10;;;60.90;;
25049;SDS011;13046;49.814;9.918;2022-12-20T12:07:28;105.78;;;65.93;;
25049;SDS011;13046;49.814;9.918;2022-12-20T12:12:43;102.97;;;63.55;;
25049;SDS011;13046;49.814;9.918;2022-12-20T12:17:40;104.35;;;64.88;;
25049;SDS011;13046;49.814;9.918;2022-12-20T12:22:55;102.72;;;64.07;;
25049;SDS011;13046;49.814;9.918;2022-12-20T12:25:23;112.97;;;68.10;;
25049;SDS011;13046;49.814;9.918;2022-12-20T12:27:49;112.63;;;71.80;;
25049;SDS011;13046;49.814;9.918;2022-12-20T12:30:15;113.15;;;72.03;;
25049;SDS011;13046;49.814;9.918;2022-12-20T12:32:50;105.82;;;67.50;;
25049;SDS011;13046;49.814;9.918;2022-12-20T12:43:52;121.55;;;74.28;;
25049;SDS011;13046;49.814;9.918;2022-12-20T12:46:29;116.00;;;74.28;;
25049;SDS011;13046;49.814;9.918;2022-12-20T12:49:03;110.90;;;73.07;;
25049;SDS011;13046;49.814;9.918;2022-12-20T12:51:32;115.00;;;73.25;;
25049;SDS011;13046;49.814;9.918;2022-12-20T12:54:10;124.28;;;80.18;;
25049;SDS011;13046;49.814;9.918;2022-12-20T12:56:39;135.98;;;86.57;;
25049;SDS011;13046;49.814;9.918;2022-12-20T13:01:50;122.90;;;81.50;;
25049;SDS011;13046;49.814;9.918;2022-12-20T13:11:45;115.32;;;73.45;;
25049;SDS011;13046;49.814;9.918;2022-12-20T13:16:37;103.38;;;64.53;;
25049;SDS011;13046;49.814;9.918;2022-12-20T13:19:12;102.13;;;62.20;;
25049;SDS011;13046;49.814;9.918;2022-12-20T13:24:27;97.60;;;61.75;;
25049;SDS011;13046;49.814;9.918;2022-12-20T13:26:55;112.85;;;64.60;;
25049;SDS011;13046;49.814;9.918;2022-12-20T13:29:23;111.20;;;68.53;;
25049;SDS011;13046;49.814;9.918;2022-12-20T13:31:50;110.43;;;64.13;;
25049;SDS011;13046;49.814;9.918;2022-12-20T13:37:01;100.90;;;62.30;;
25049;SDS011;13046;49.814;9.918;2022-12-20T13:42:05;101.35;;;64.80;;
25049;SDS011;13046;49.814;9.918;2022-12-20T13:44:43;77.25;;;46.28;;
25049;SDS011;13046;49.814;9.918;2022-12-20T13:49:43;117.93;;;74.63;;
25049;SDS011;13046;49.814;9.918;2022-12-20T13:54:39;115.90;;;75.65;;
25049;SDS011;13046;49.814;9.918;2022-12-20T13:57:05;107.85;;;68.90;;
25049;SDS011;13046;49.814;9.918;2022-12-20T13:59:31;102.18;;;65.95;;
25049;SDS011;13046;49.814;9.918;2022-12-20T14:01:58;107.72;;;71.47;;
25049;SDS011;13046;49.814;9.918;2022-12-20T14:04:25;109.15;;;68.90;;
25049;SDS011;13046;49.814;9.918;2022-12-20T14:06:53;110.53;;;66.90;;
25049;SDS011;13046;49.814;9.918;2022-12-20T14:11:53;115.57;;;70.45;;
25049;SDS011;13046;49.814;9.918;2022-12-20T14:14:19;125.15;;;78.88;;
25049;SDS011;13046;49.814;9.918;2022-12-20T14:16:45;108.55;;;73.05;;
25049;SDS011;13046;49.814;9.918;2022-12-20T14:19:12;127.90;;;82.85;;
25049;SDS011;13046;49.814;9.918;2022-12-20T14:21:40;115.07;;;76.28;;
25049;SDS011;13046;49.814;9.918;2022-12-20T14:24:08;118.93;;;75.68;;
25049;SDS011;13046;49.814;9.918;2022-12-20T14:26:40;89.18;;;56.88;;
25049;SDS011;13046;49.814;9.918;2022-12-20T14:29:14;110.38;;;70.50;;
25049;SDS011;13046;49.814;9.918;2022-12-20T14:31:42;112.13;;;76.10;;
25049;SDS011;13046;49.814;9.918;2022-12-20T14:36:34;118.28;;;75.50;;
25049;SDS011;13046;49.814;9.918;2022-12-20T14:39:09;105.45;;;68.28;;
25049;SDS011;13046;49.814;9.918;2022-12-20T14:41:46;104.65;;;66.38;;
25049;SDS011;13046;49.814;9.918;2022-12-20T14:44:15;104.90;;;67.05;;
25049;SDS011;13046;49.814;9.918;2022-12-20T14:46:57;111.10;;;68.03;;
25049;SDS011;13046;49.814;9.918;2022-12-20T14:52:05;117.65;;;71.18;;
25049;SDS011;13046;49.814;9.918;2022-12-20T14:54:32;118.28;;;73.07;;
25049;SDS011;13046;49.814;9.918;2022-12-20T14:56:58;107.45;;;69.20;;
25049;SDS011;13046;49.814;9.918;2022-12-20T14:59:25;106.03;;;68.25;;
25049;SDS011;13046;49.814;9.918;2022-12-20T15:01:52;116.50;;;71.90;;
25049;SDS011;13046;49.814;9.918;2022-12-20T15:04:32;119.57;;;75.25;;
25049;SDS011;13046;49.814;9.918;2022-12-20T15:06:58;119.03;;;75.70;;
25049;SDS011;13046;49.814;9.918;2022-12-20T15:09:24;122.95;;;76.10;;
25049;SDS011;13046;49.814;9.918;2022-12-20T15:11:50;138.98;;;86.75;;
25049;SDS011;13046;49.814;9.918;2022-12-20T15:14:21;135.35;;;86.85;;
25049;SDS011;13046;49.814;9.918;2022-12-20T15:16:49;158.90;;;91.72;;
25049;SDS011;13046;49.814;9.918;2022-12-20T15:19:16;186.70;;;109.85;;
25049;SDS011;13046;49.814;9.918;2022-12-20T15:21:42;315.38;;;160.25;;
25049;SDS011;13046;49.814;9.918;2022-12-20T15:24:13;230.40;;;130.52;;
25049;SDS011;13046;49.814;9.918;2022-12-20T15:26:40;163.82;;;99.20;;
25049;SDS011;13046;49.814;9.918;2022-12-20T15:29:16;166.57;;;99.00;;
25049;SDS011;13046;49.814;9.918;2022-12-20T15:31:43;162.40;;;99.95;;
25049;SDS011;13046;49.814;9.918;2022-12-20T15:34:13;116.50;;;74.43;;
25049;SDS011;13046;49.814;9.918;2022-12-20T15:36:40;132.32;;;87.10;;
25049;SDS011;13046;49.814;9.918;2022-12-20T15:39:06;216.25;;;136.50;;
25049;SDS011;13046;49.814;9.918;2022-12-20T15:41:32;133.15;;;88.45;;
25049;SDS011;13046;49.814;9.918;2022-12-20T15:43:59;144.27;;;89.13;;
25049;SDS011;13046;49.814;9.918;2022-12-20T15:46:27;137.88;;;88.43;;
25049;SDS011;13046;49.814;9.918;2022-12-20T15:48:53;141.90;;;93.30;;
25049;SDS011;13046;49.814;9.918;2022-12-20T15:51:25;200.10;;;129.93;;
25049;SDS011;13046;49.814;9.918;2022-12-20T15:53:52;210.87;;;131.57;;
25049;SDS011;13046;49.814;9.918;2022-12-20T15:56:20;169.50;;;111.97;;
25049;SDS011;13046;49.814;9.918;2022-12-20T15:58:47;126.22;;;80.80;;
25049;SDS011;13046;49.814;9.918;2022-12-20T16:01:21;134.73;;;87.50;;
25049;SDS011;13046;49.814;9.918;2022-12-20T16:03:47;142.52;;;89.40;;
25049;SDS011;13046;49.814;9.918;2022-12-20T16:06:13;146.55;;;92.88;;
25049;SDS011;13046;49.814;9.918;2022-12-20T16:08:39;167.10;;;103.20;;
25049;SDS011;13046;49.814;9.918;2022-12-20T16:11:09;316.23;;;190.13;;
25049;SDS011;13046;49.814;9.918;2022-12-20T16:13:39;172.98;;;107.45;;
25049;SDS011;13046;49.814;9.918;2022-12-20T16:16:05;169.77;;;105.05;;
25049;SDS011;13046;49.814;9.918;2022-12-20T16:18:32;197.18;;;116.25;;
25049;SDS011;13046;49.814;9.918;2022-12-20T16:20:58;105.15;;;67.32;;
25049;SDS011;13046;49.814;9.918;2022-12-20T16:23:24;105.57;;;70.50;;
25049;SDS011;13046;49.814;9.918;2022-12-20T16:25:51;133.90;;;93.95;;
25049;SDS011;13046;49.814;9.918;2022-12-20T16:28:17;209.90;;;121.18;;
25049;SDS011;13046;49.814;9.918;2022-12-20T16:30:44;112.63;;;73.35;;
25049;SDS011;13046;49.814;9.918;2022-12-20T16:33:15;96.63;;;61.92;;